createdAt,value
2023-02-09T00:00:22.174Z,-3.10
2023-02-09T00:02:49.985Z,-3.10
2023-02-09T00:05:19.251Z,-3.10
2023-02-09T00:07:47.203Z,-3.20
2023-02-09T00:10:15.121Z,-3.10
2023-02-09T00:13:00.650Z,-3.20
2023-02-09T00:15:28.486Z,-3.20
2023-02-09T00:17:56.363Z,-3.20
2023-02-09T00:20:25.497Z,-3.20
2023-02-09T00:22:53.431Z,-3.30
2023-02-09T00:25:21.261Z,-3.30
2023-02-09T00:27:49.081Z,-3.30
2023-02-09T00:30:16.927Z,-3.30
2023-02-09T00:32:44.800Z,-3.30
2023-02-09T00:35:12.683Z,-3.30
2023-02-09T00:37:42.046Z,-3.30
2023-02-09T00:40:10.751Z,-3.30
2023-02-09T00:42:38.726Z,-3.30
2023-02-09T00:45:09.931Z,-3.30
2023-02-09T00:47:37.753Z,-3.30
2023-02-09T00:50:08.396Z,-3.40
2023-02-09T00:52:36.727Z,-3.40
2023-02-09T00:55:06.961Z,-3.50
2023-02-09T00:57:36.051Z,-3.50
2023-02-09T01:00:04.563Z,-3.50
2023-02-09T01:02:32.586Z,-3.50
2023-02-09T01:05:00.738Z,-3.60
2023-02-09T01:07:28.649Z,-3.60
2023-02-09T01:09:56.532Z,-3.60
2023-02-09T01:12:25.756Z,-3.60
2023-02-09T01:14:53.638Z,-3.60
2023-02-09T01:17:21.602Z,-3.60
2023-02-09T01:19:52.835Z,-3.60
2023-02-09T01:22:20.838Z,-3.60
2023-02-09T01:24:48.986Z,-3.70
2023-02-09T01:27:16.953Z,-3.70
2023-02-09T01:29:46.416Z,-3.70
2023-02-09T01:32:14.238Z,-3.70
2023-02-09T01:34:42.392Z,-3.70
2023-02-09T01:37:10.194Z,-3.80
2023-02-09T01:39:38.029Z,-3.80
2023-02-09T01:42:05.936Z,-3.80
2023-02-09T01:45:22.637Z,-3.80
2023-02-09T01:47:57.547Z,-3.80
2023-02-09T01:50:27.052Z,-3.90
2023-02-09T01:52:55.563Z,-3.80
2023-02-09T01:55:26.530Z,-3.80
2023-02-09T01:57:58.603Z,-3.90
2023-02-09T02:00:27.557Z,-3.90
2023-02-09T02:03:02.630Z,-3.90
2023-02-09T02:05:32.216Z,-3.90
2023-02-09T02:08:04.240Z,-3.90
2023-02-09T02:10:32.426Z,-4.00
2023-02-09T02:13:00.863Z,-4.00
2023-02-09T02:15:34.303Z,-4.00
2023-02-09T02:18:17.706Z,-4.00
2023-02-09T02:21:07.055Z,-4.00
2023-02-09T02:23:44.360Z,-4.10
2023-02-09T02:26:58.121Z,-4.10
2023-02-09T02:29:49.991Z,-4.10
2023-02-09T02:32:33.846Z,-4.20
2023-02-09T02:35:06.206Z,-4.20
2023-02-09T02:37:43.660Z,-4.20
2023-02-09T02:40:23.123Z,-4.20
2023-02-09T02:42:55.998Z,-4.20
2023-02-09T02:45:33.697Z,-4.20
2023-02-09T02:48:11.910Z,-4.30
2023-02-09T02:50:46.264Z,-4.30
2023-02-09T02:53:17.338Z,-4.30
2023-02-09T02:55:48.080Z,-4.30
2023-02-09T02:58:17.757Z,-4.30
2023-02-09T03:00:52.971Z,-4.30
2023-02-09T03:03:24.495Z,-4.40
2023-02-09T03:05:53.901Z,-4.40
2023-02-09T03:08:21.905Z,-4.40
2023-02-09T03:10:52.914Z,-4.40
2023-02-09T03:13:39.434Z,-4.40
2023-02-09T03:16:19.288Z,-4.40
2023-02-09T03:19:04.054Z,-4.50
2023-02-09T03:21:42.565Z,-4.40
2023-02-09T03:24:20.484Z,-4.50
2023-02-09T03:26:54.227Z,-4.50
2023-02-09T03:29:24.708Z,-4.50
2023-02-09T03:31:53.115Z,-4.50
2023-02-09T03:34:22.316Z,-4.50
2023-02-09T03:36:52.853Z,-4.50
2023-02-09T03:39:20.869Z,-4.60
2023-02-09T03:41:48.761Z,-4.60
2023-02-09T03:44:28.680Z,-4.60
2023-02-09T03:46:58.403Z,-4.70
2023-02-09T03:49:32.686Z,-4.60
2023-02-09T03:52:01.451Z,-4.70
2023-02-09T03:54:30.634Z,-4.70
2023-02-09T03:56:59.015Z,-4.70
2023-02-09T03:59:27.709Z,-4.70
2023-02-09T04:01:58.154Z,-4.70
2023-02-09T04:04:27.640Z,-4.70
2023-02-09T04:06:55.986Z,-4.70
2023-02-09T04:09:24.450Z,-4.70
2023-02-09T04:11:55.884Z,-4.70
2023-02-09T04:14:24.053Z,-4.80
2023-02-09T04:16:51.998Z,-4.80
2023-02-09T04:19:19.834Z,-4.70
2023-02-09T04:21:49.124Z,-4.70
2023-02-09T04:24:16.951Z,-4.70
2023-02-09T04:26:44.751Z,-4.80
2023-02-09T04:29:12.635Z,-4.80
2023-02-09T04:31:40.491Z,-4.90
2023-02-09T04:34:08.377Z,-4.90
2023-02-09T04:36:36.142Z,-4.90
2023-02-09T04:39:05.496Z,-4.90
2023-02-09T04:41:33.367Z,-4.90
2023-02-09T04:44:01.240Z,-4.90
2023-02-09T04:46:29.158Z,-4.90
2023-02-09T04:48:57.143Z,-4.90
2023-02-09T04:51:25.030Z,-4.90
2023-02-09T04:53:52.842Z,-4.90
2023-02-09T04:56:22.043Z,-5.00
2023-02-09T04:59:07.231Z,-5.10
2023-02-09T05:01:35.087Z,-5.00
2023-02-09T05:04:02.943Z,-5.10
2023-02-09T05:06:30.793Z,-5.10
2023-02-09T05:08:58.704Z,-5.00
2023-02-09T05:11:27.916Z,-5.10
2023-02-09T05:13:57.159Z,-5.10
2023-02-09T05:16:25.142Z,-5.10
2023-02-09T05:18:52.971Z,-5.00
2023-02-09T05:21:20.813Z,-5.10
2023-02-09T05:23:48.601Z,-5.10
2023-02-09T05:26:16.419Z,-5.10
2023-02-09T05:28:45.531Z,-5.10
2023-02-09T05:31:13.470Z,-5.10
2023-02-09T05:33:41.351Z,-5.10
2023-02-09T05:36:12.595Z,-5.10
2023-02-09T05:38:40.982Z,-5.20
2023-02-09T05:41:10.435Z,-5.20
2023-02-09T05:43:39.729Z,-5.20
2023-02-09T05:46:08.906Z,-5.20
2023-02-09T05:48:36.746Z,-5.30
2023-02-09T05:51:04.579Z,-5.30
2023-02-09T05:53:32.533Z,-5.20
2023-02-09T05:56:00.450Z,-5.30
2023-02-09T05:58:28.241Z,-5.30
2023-02-09T06:00:56.090Z,-5.30
2023-02-09T06:03:25.272Z,-5.30
2023-02-09T06:05:53.111Z,-5.30
2023-02-09T06:08:20.853Z,-5.30
2023-02-09T06:10:48.616Z,-5.30
2023-02-09T06:13:16.409Z,-5.30
2023-02-09T06:15:44.273Z,-5.30
2023-02-09T06:18:12.088Z,-5.30
2023-02-09T06:20:41.254Z,-5.30
2023-02-09T06:23:09.360Z,-5.30
2023-02-09T06:25:39.861Z,-5.30
2023-02-09T06:28:07.776Z,-5.30
2023-02-09T06:30:35.818Z,-5.40
2023-02-09T06:33:03.720Z,-5.40
2023-02-09T06:35:31.527Z,-5.40
2023-02-09T06:38:00.827Z,-5.40
2023-02-09T06:40:29.112Z,-5.40
2023-02-09T06:42:57.087Z,-5.40
2023-02-09T06:45:24.861Z,-5.40
2023-02-09T06:47:52.876Z,-5.30
2023-02-09T06:50:21.061Z,-5.30
2023-02-09T06:52:48.971Z,-5.40
2023-02-09T06:55:18.180Z,-5.40
2023-02-09T06:57:46.081Z,-5.40
2023-02-09T07:00:15.336Z,-5.40
2023-02-09T07:02:43.500Z,-5.40
2023-02-09T07:05:11.971Z,-5.40
2023-02-09T07:07:40.060Z,-5.40
2023-02-09T07:10:09.838Z,-5.30
2023-02-09T07:12:40.659Z,-5.10
2023-02-09T07:15:09.248Z,-5.20
2023-02-09T07:17:37.273Z,-5.20
2023-02-09T07:20:05.949Z,-5.30
2023-02-09T07:22:34.459Z,-5.20
2023-02-09T07:25:02.270Z,-4.10
2023-02-09T07:27:30.051Z,-4.20
2023-02-09T07:30:00.906Z,-3.60
2023-02-09T07:32:29.180Z,-3.70
2023-02-09T07:34:56.981Z,-4.40
2023-02-09T07:37:24.799Z,-4.90
2023-02-09T07:39:52.549Z,-4.90
2023-02-09T07:42:22.005Z,-5.10
2023-02-09T07:44:51.047Z,-5.10
2023-02-09T07:47:20.283Z,-4.90
2023-02-09T07:49:48.042Z,-4.40
2023-02-09T07:52:15.988Z,-4.30
2023-02-09T07:54:43.953Z,-4.40
2023-02-09T07:57:13.858Z,-4.50
2023-02-09T07:59:41.687Z,-4.50
2023-02-09T08:02:17.998Z,-4.70
2023-02-09T08:04:50.582Z,-4.70
2023-02-09T08:07:18.519Z,-4.70
2023-02-09T08:09:47.000Z,-4.60
2023-02-09T08:12:15.161Z,-3.30
2023-02-09T08:14:48.215Z,-3.00
2023-02-09T08:17:23.996Z,-2.90
2023-02-09T08:19:57.263Z,-3.40
2023-02-09T08:22:28.669Z,-3.30
2023-02-09T08:24:56.998Z,-3.30
2023-02-09T08:27:24.876Z,-3.50
2023-02-09T08:29:53.034Z,-3.70
2023-02-09T08:32:20.825Z,-3.50
2023-02-09T08:34:48.650Z,-2.30
2023-02-09T08:37:17.875Z,-2.10
2023-02-09T08:39:46.225Z,-1.70
2023-02-09T08:42:14.095Z,-1.80
2023-02-09T08:44:41.950Z,-1.00
2023-02-09T08:47:09.792Z,-0.50
2023-02-09T08:49:37.826Z,-0.50
2023-02-09T08:52:08.162Z,0.00
2023-02-09T08:54:37.451Z,0.10
2023-02-09T08:57:05.322Z,0.30
2023-02-09T08:59:33.834Z,-0.50
2023-02-09T09:02:01.668Z,-0.50
2023-02-09T09:04:29.473Z,-1.30
2023-02-09T09:06:58.476Z,-1.80
2023-02-09T09:09:26.562Z,-1.60
2023-02-09T09:11:55.754Z,-1.50
2023-02-09T09:14:23.489Z,-1.40
2023-02-09T09:16:51.333Z,-1.50
2023-02-09T09:19:19.199Z,-1.40
2023-02-09T09:21:47.044Z,-1.60
2023-02-09T09:24:16.088Z,-1.10
2023-02-09T09:26:43.930Z,-1.30
2023-02-09T09:29:13.115Z,-1.60
2023-02-09T09:31:41.063Z,-1.30
2023-02-09T09:34:08.980Z,-1.00
2023-02-09T09:36:37.039Z,-0.90
2023-02-09T09:39:05.058Z,-0.80
2023-02-09T09:41:36.418Z,-0.60
2023-02-09T09:44:11.613Z,-0.30
2023-02-09T09:46:44.725Z,0.20
2023-02-09T09:49:21.723Z,0.60
2023-02-09T09:51:53.399Z,0.70
2023-02-09T09:54:24.293Z,0.70
2023-02-09T09:56:53.160Z,0.70
2023-02-09T09:59:24.260Z,0.90
2023-02-09T10:01:55.099Z,0.70
2023-02-09T10:04:23.116Z,1.00
2023-02-09T10:06:59.087Z,0.70
2023-02-09T10:09:35.952Z,0.80
2023-02-09T10:12:15.950Z,0.70
2023-02-09T10:14:43.855Z,0.60
2023-02-09T10:17:13.161Z,0.60
2023-02-09T10:19:41.004Z,1.00
2023-02-09T10:22:13.670Z,0.80
2023-02-09T10:24:41.934Z,1.40
2023-02-09T10:27:15.590Z,1.60
2023-02-09T10:29:43.501Z,1.60
2023-02-09T10:32:18.654Z,1.70
2023-02-09T10:34:50.384Z,2.10
2023-02-09T10:37:25.007Z,2.10
2023-02-09T10:40:02.243Z,1.50
2023-02-09T10:42:32.745Z,1.80
2023-02-09T10:45:08.222Z,2.40
2023-02-09T10:47:37.408Z,2.50
2023-02-09T10:50:17.009Z,1.50
2023-02-09T10:52:55.542Z,1.60
2023-02-09T10:55:27.663Z,1.00
2023-02-09T10:58:13.357Z,0.80
2023-02-09T11:00:50.102Z,1.30
2023-02-09T11:03:21.256Z,2.20
2023-02-09T11:05:59.275Z,1.80
2023-02-09T11:08:38.621Z,2.00
2023-02-09T11:11:09.579Z,2.50
2023-02-09T11:13:39.903Z,3.20
2023-02-09T11:16:55.471Z,3.60
2023-02-09T11:19:42.034Z,3.10
2023-02-09T11:22:13.765Z,2.00
2023-02-09T11:24:55.015Z,2.60
2023-02-09T11:28:13.675Z,3.40
2023-02-09T11:31:40.938Z,3.90
2023-02-09T11:34:19.363Z,4.50
2023-02-09T11:36:57.921Z,4.30
2023-02-09T11:39:32.629Z,4.40
2023-02-09T11:42:21.559Z,4.30
2023-02-09T11:44:55.514Z,4.40
2023-02-09T11:47:29.020Z,4.60
2023-02-09T11:49:58.689Z,4.30
2023-02-09T11:52:34.675Z,4.50
2023-02-09T11:55:12.268Z,4.30
2023-02-09T11:57:45.992Z,4.40
2023-02-09T12:00:20.899Z,4.70
2023-02-09T12:02:56.678Z,4.80
2023-02-09T12:05:25.504Z,3.90
2023-02-09T12:08:23.197Z,3.90
2023-02-09T12:11:08.732Z,2.80
2023-02-09T12:13:51.381Z,3.60
2023-02-09T12:16:23.040Z,4.80
2023-02-09T12:18:53.556Z,5.10
2023-02-09T12:21:32.207Z,4.70
2023-02-09T12:24:02.364Z,5.00
2023-02-09T12:26:43.707Z,4.40
2023-02-09T12:29:25.065Z,4.70
2023-02-09T12:32:24.425Z,5.00
2023-02-09T12:34:56.200Z,5.20
2023-02-09T12:37:27.658Z,5.30
2023-02-09T12:40:22.465Z,5.30
2023-02-09T12:43:26.911Z,5.30
2023-02-09T12:46:47.849Z,4.20
2023-02-09T12:49:21.478Z,5.30
2023-02-09T12:52:13.410Z,5.00
2023-02-09T12:54:45.576Z,5.40
2023-02-09T12:57:52.518Z,5.20
2023-02-09T13:00:53.896Z,5.40
2023-02-09T13:03:24.248Z,4.00
2023-02-09T13:05:55.073Z,4.30
2023-02-09T13:08:35.541Z,5.00
2023-02-09T13:11:13.786Z,5.00
2023-02-09T13:13:50.504Z,5.10
2023-02-09T13:17:06.224Z,5.50
2023-02-09T13:20:05.553Z,4.10
2023-02-09T13:22:47.612Z,4.00
2023-02-09T13:25:22.812Z,3.90
2023-02-09T13:27:51.202Z,4.90
2023-02-09T13:30:27.823Z,4.80
2023-02-09T13:33:03.733Z,4.30
2023-02-09T13:35:36.296Z,4.30
2023-02-09T13:38:16.015Z,3.70
2023-02-09T13:40:47.478Z,3.50
2023-02-09T13:43:19.430Z,4.30
2023-02-09T13:45:48.220Z,4.50
2023-02-09T13:48:24.596Z,4.20
2023-02-09T13:50:55.512Z,5.10
2023-02-09T13:53:25.937Z,4.90
2023-02-09T13:55:56.702Z,4.20
2023-02-09T13:58:27.861Z,3.80
2023-02-09T14:00:59.398Z,4.50
2023-02-09T14:03:30.469Z,4.30
2023-02-09T14:06:03.556Z,3.70
2023-02-09T14:08:33.348Z,3.70
2023-02-09T14:11:06.854Z,3.40
2023-02-09T14:13:40.139Z,3.80
2023-02-09T14:16:07.973Z,3.70
2023-02-09T14:18:48.210Z,3.80
2023-02-09T14:21:24.340Z,3.40
2023-02-09T14:24:14.203Z,3.30
2023-02-09T14:26:48.717Z,3.80
2023-02-09T14:29:20.493Z,3.90
2023-02-09T14:31:51.034Z,3.90
2023-02-09T14:34:36.322Z,3.60
2023-02-09T14:37:30.809Z,3.80
2023-02-09T14:40:01.881Z,3.40
2023-02-09T14:42:30.356Z,3.60
2023-02-09T14:45:00.179Z,3.50
2023-02-09T14:47:30.892Z,3.20
2023-02-09T14:49:59.040Z,3.50
2023-02-09T14:52:31.371Z,3.10
2023-02-09T14:55:02.899Z,3.00
2023-02-09T14:57:32.169Z,3.20
2023-02-09T15:00:02.865Z,3.30
2023-02-09T15:02:32.012Z,3.40
2023-02-09T15:05:00.192Z,3.50
2023-02-09T15:07:35.953Z,3.00
2023-02-09T15:10:04.839Z,2.90
2023-02-09T15:12:32.734Z,2.90
2023-02-09T15:15:04.982Z,2.80
2023-02-09T15:17:34.777Z,3.00
2023-02-09T15:20:02.654Z,3.00
2023-02-09T15:22:32.679Z,2.70
2023-02-09T15:25:00.748Z,2.80
2023-02-09T15:27:37.122Z,2.60
2023-02-09T15:30:11.375Z,2.50
2023-02-09T15:32:39.245Z,2.40
2023-02-09T15:35:07.789Z,2.40
2023-02-09T15:37:39.426Z,2.40
2023-02-09T15:40:39.687Z,2.50
2023-02-09T15:43:35.707Z,2.40
2023-02-09T15:46:21.744Z,2.30
2023-02-09T15:48:49.568Z,2.30
2023-02-09T15:51:18.605Z,2.40
2023-02-09T15:53:48.456Z,2.50
2023-02-09T15:56:16.770Z,2.60
2023-02-09T15:58:46.251Z,2.60
2023-02-09T16:01:16.552Z,2.60
2023-02-09T16:03:44.911Z,2.50
2023-02-09T16:06:15.577Z,2.40
2023-02-09T16:08:44.358Z,2.40
2023-02-09T16:11:20.333Z,2.40
2023-02-09T16:13:48.294Z,2.30
2023-02-09T16:16:17.888Z,2.40
2023-02-09T16:18:46.488Z,2.40
2023-02-09T16:21:21.068Z,2.30
2023-02-09T16:23:49.353Z,2.30
2023-02-09T16:26:19.220Z,2.30
2023-02-09T16:28:48.063Z,2.30
2023-02-09T16:31:15.872Z,2.20
2023-02-09T16:33:43.737Z,2.20
2023-02-09T16:36:15.409Z,2.20
2023-02-09T16:38:43.892Z,2.20
2023-02-09T16:41:35.116Z,2.20
2023-02-09T16:44:13.364Z,2.20
2023-02-09T16:46:41.272Z,2.10
2023-02-09T16:49:20.569Z,2.00
2023-02-09T16:51:48.354Z,2.00
2023-02-09T16:54:16.362Z,2.00
2023-02-09T16:56:53.930Z,2.00
2023-02-09T16:59:23.790Z,1.90
2023-02-09T17:01:51.750Z,1.90
2023-02-09T17:04:19.969Z,1.90
2023-02-09T17:06:52.689Z,1.90
2023-02-09T17:09:20.507Z,1.90
2023-02-09T17:11:48.986Z,1.80
2023-02-09T17:14:16.786Z,1.80
2023-02-09T17:16:49.710Z,1.80
2023-02-09T17:19:19.019Z,1.80
2023-02-09T17:21:46.821Z,1.80
2023-02-09T17:24:17.205Z,1.70
2023-02-09T17:26:45.154Z,1.70
2023-02-09T17:29:13.304Z,1.60
2023-02-09T17:31:52.763Z,1.60
2023-02-09T17:34:26.842Z,1.50
2023-02-09T17:36:54.770Z,1.50
2023-02-09T17:39:22.521Z,1.60
2023-02-09T17:41:50.454Z,1.50
2023-02-09T17:44:32.073Z,1.50
2023-02-09T17:47:09.930Z,1.40
2023-02-09T17:49:39.045Z,1.40
2023-02-09T17:52:06.991Z,1.40
2023-02-09T17:54:34.792Z,1.40
2023-02-09T17:57:02.567Z,1.40
2023-02-09T17:59:30.406Z,1.40
2023-02-09T18:01:58.793Z,1.30
2023-02-09T18:04:28.443Z,1.30
2023-02-09T18:06:58.163Z,1.30
2023-02-09T18:09:25.985Z,1.20
2023-02-09T18:12:02.074Z,1.20
2023-02-09T18:14:31.717Z,1.20
2023-02-09T18:16:59.865Z,1.20
2023-02-09T18:19:27.839Z,1.10
2023-02-09T18:21:59.032Z,1.10
2023-02-09T18:24:29.557Z,1.10
2023-02-09T18:26:57.514Z,1.10
2023-02-09T18:29:29.327Z,1.00
2023-02-09T18:31:57.813Z,1.00
2023-02-09T18:34:25.979Z,1.00
2023-02-09T18:36:53.844Z,1.00
2023-02-09T18:39:23.033Z,0.90
2023-02-09T18:41:54.347Z,0.90
2023-02-09T18:44:28.428Z,0.90
2023-02-09T18:46:56.838Z,0.90
2023-02-09T18:49:24.684Z,0.80
2023-02-09T18:51:52.725Z,0.90
2023-02-09T18:54:21.829Z,0.80
2023-02-09T18:56:49.687Z,0.80
2023-02-09T18:59:18.277Z,0.80
2023-02-09T19:01:46.472Z,0.80
2023-02-09T19:04:14.575Z,0.80
2023-02-09T19:06:42.425Z,0.80
2023-02-09T19:09:10.284Z,0.80
2023-02-09T19:11:39.466Z,0.70
2023-02-09T19:14:24.739Z,0.70
2023-02-09T19:16:52.515Z,0.70
2023-02-09T19:19:20.885Z,0.70
2023-02-09T19:21:51.916Z,0.70
2023-02-09T19:24:20.112Z,0.60
2023-02-09T19:26:49.377Z,0.70
2023-02-09T19:29:17.696Z,0.60
2023-02-09T19:31:46.447Z,0.60
2023-02-09T19:34:14.295Z,0.60
2023-02-09T19:36:42.165Z,0.50
2023-02-09T19:39:11.530Z,0.50
2023-02-09T19:41:39.473Z,0.40
2023-02-09T19:44:08.681Z,0.40
2023-02-09T19:46:36.466Z,0.40
2023-02-09T19:49:04.808Z,0.40
2023-02-09T19:51:32.689Z,0.50
2023-02-09T19:54:00.448Z,0.40
2023-02-09T19:56:28.429Z,0.50
2023-02-09T19:58:56.296Z,0.50
2023-02-09T20:01:26.792Z,0.40
2023-02-09T20:03:54.633Z,0.30
2023-02-09T20:06:22.416Z,0.30
2023-02-09T20:08:50.713Z,0.30
2023-02-09T20:11:20.330Z,0.20
2023-02-09T20:13:52.184Z,0.30
2023-02-09T20:16:23.136Z,0.20
2023-02-09T20:18:53.434Z,0.20
2023-02-09T20:21:22.869Z,0.10
2023-02-09T20:23:55.206Z,0.10
2023-02-09T20:26:26.415Z,0.10
2023-02-09T20:28:54.576Z,0.10
2023-02-09T20:31:24.064Z,0.10
2023-02-09T20:33:53.287Z,0.10
2023-02-09T20:36:24.557Z,0.10
2023-02-09T20:38:53.571Z,0.10
2023-02-09T20:41:21.525Z,0.00
2023-02-09T20:44:07.096Z,0.00
2023-02-09T20:46:52.945Z,0.00
2023-02-09T20:49:22.930Z,0.00
2023-02-09T20:51:50.684Z,-0.10
2023-02-09T20:54:18.574Z,-0.10
2023-02-09T20:56:46.636Z,-0.10
2023-02-09T20:59:14.551Z,-0.20
2023-02-09T21:01:44.935Z,-0.20
2023-02-09T21:04:13.027Z,-0.10
2023-02-09T21:06:42.301Z,-0.10
2023-02-09T21:09:14.746Z,-0.10
2023-02-09T21:11:43.244Z,-0.20
2023-02-09T21:14:21.745Z,-0.20
2023-02-09T21:16:56.154Z,-0.20
2023-02-09T21:19:24.291Z,-0.20
2023-02-09T21:21:53.532Z,-0.20
2023-02-09T21:24:21.880Z,-0.20
2023-02-09T21:26:49.772Z,-0.20
2023-02-09T21:29:17.652Z,-0.30
2023-02-09T21:31:45.893Z,-0.20
2023-02-09T21:34:16.271Z,-0.20
2023-02-09T21:36:44.357Z,-0.10
2023-02-09T21:39:14.001Z,-0.20
2023-02-09T21:41:59.582Z,-0.30
2023-02-09T21:44:27.383Z,-0.40
2023-02-09T21:46:55.158Z,-0.40
2023-02-09T21:49:23.382Z,-0.40
2023-02-09T21:51:51.189Z,-0.50
2023-02-09T21:54:20.360Z,-0.50
2023-02-09T21:56:48.167Z,-0.50
2023-02-09T21:59:15.915Z,-0.50
2023-02-09T22:01:43.792Z,-0.40
2023-02-09T22:04:11.734Z,-0.40
2023-02-09T22:06:39.632Z,-0.50
2023-02-09T22:09:07.394Z,-0.40
2023-02-09T22:11:36.600Z,-0.50
2023-02-09T22:14:04.440Z,-0.50
2023-02-09T22:16:32.595Z,-0.50
2023-02-09T22:19:00.871Z,-0.60
2023-02-09T22:21:28.688Z,-0.60
2023-02-09T22:23:56.605Z,-0.60
2023-02-09T22:26:24.478Z,-0.70
2023-02-09T22:28:53.573Z,-0.90
2023-02-09T22:31:22.433Z,-0.80
2023-02-09T22:33:54.138Z,-0.70
2023-02-09T22:36:23.294Z,-0.80
2023-02-09T22:38:51.554Z,-0.70
2023-02-09T22:41:22.678Z,-0.70
2023-02-09T22:43:52.267Z,-0.80
2023-02-09T22:46:22.747Z,-0.80
2023-02-09T22:48:54.285Z,-0.80
2023-02-09T22:51:23.810Z,-0.80
2023-02-09T22:53:52.064Z,-0.80
2023-02-09T22:56:19.873Z,-0.80
2023-02-09T23:01:31.001Z,-0.80
2023-02-09T23:03:59.544Z,-0.90
2023-02-09T23:06:29.848Z,-0.90
2023-02-09T23:09:00.538Z,-1.00
2023-02-09T23:11:29.694Z,-1.00
2023-02-09T23:14:13.695Z,-0.90
2023-02-09T23:16:44.728Z,-0.90
2023-02-09T23:19:15.295Z,-0.90
2023-02-09T23:21:45.969Z,-1.00
2023-02-09T23:24:14.868Z,-1.00
2023-02-09T23:26:43.071Z,-1.00
2023-02-09T23:29:14.275Z,-1.00
2023-02-09T23:31:44.976Z,-1.00
2023-02-09T23:34:16.052Z,-1.00
2023-02-09T23:36:44.108Z,-1.00
2023-02-09T23:39:15.050Z,-1.10
2023-02-09T23:41:43.039Z,-1.10
2023-02-09T23:44:10.963Z,-1.10
2023-02-09T23:46:39.043Z,-1.10
2023-02-09T23:49:08.358Z,-1.20
2023-02-09T23:51:37.301Z,-1.20
2023-02-09T23:54:07.113Z,-1.10
2023-02-09T23:56:37.511Z,-1.20
2023-02-09T23:59:06.642Z,-1.20
